Terminal Aerodrome Forecast
Issued by NWS

Home | Current Version | Previous Version | Text Only | Print | Product List | Glossary On
Versions: 1 2 3 4 5 6 7 8 9 10 11 12 13 14 15 16 17 18
000
FTUS41 KPBZ 291900 AAA
TAFBVI
TAF AMD
KBVI 291912Z 2919/3018 17008KT P6SM BKN007
     FM292100 19010G18KT P6SM OVC035
     FM292300 25012G24KT 2SM -SHSN OVC008
     FM300900 29012G24KT 3SM -SHSN OVC012=

USA.gov is the U.S. government's official web portal to all federal, state and local government web resources and services.